Fdny M-8 — WDF9767 — position and weather

sailwx.info

Track history (hours):
 
Tides and Currents Weather Stations Pressure Air Temp Water Temp Dewpoint Dewpoint Depression Visibility Wind Speed Wind Dir Waves Ship Positions

Fdny M-8

Owner: NEW YORK CITY FIRE DEPT, BROOKLYN, NY. More information available from US FCC via Universal Licensing System.

Last reported at 2017-Sep-24 20:14 UTC. Time now 2017-Sep-25 00:42 UTC.
Position N 40°36' W 074°03'.

Length 11 m.

Type: Law enforcement. MMSI: 367508630.

Date/timePositionNaut miles runAvg speedWind from/ knotsBaromVisibWave heightAir tempDewpointWater temp
2017-Sep-24 20:14N 40°36' W 074°03'728.2
2017-Sep-24 20:00N 40°42' W 074°01'1 1.7
2017-Sep-24 19:30N 40°43' W 074°01'1 2.1
2017-Sep-24 19:00N 40°43' W 074°02'0 0.0
2017-Sep-24 18:30N 40°43' W 074°02'4 8.3
2017-Sep-24 18:00N 40°38' W 074°03'1015.1
2017-Sep-24 17:18N 40°28' W 074°01'12 0.6
2017-Sep-23 20:32N 40°37' W 074°12'136.8
2017-Sep-23 20:30N 40°38' W 074°12'918.0
2017-Sep-23 19:59N 40°40' W 073°60'  
2017-Sep-20 22:01N 40°42' W 073°58'0 0.0
2017-Sep-20 22:00N 40°42' W 073°58'0 0.0
2017-Sep-20 21:31N 40°42' W 073°58'0 0.0
2017-Sep-20 21:00N 40°42' W 073°58'5 9.4
2017-Sep-20 20:30N 40°39' W 074°02'4 1.0
2017-Sep-20 16:26N 40°35' W 074°04'716.0
2017-Sep-20 16:00N 40°38' W 074°12'1 0.0
2017-Sep-18 19:51N 40°37' W 074°12'720.0
2017-Sep-18 19:30N 40°41' W 074°04'3 6.0
2017-Sep-18 19:00N 40°42' W 074°01'0 0.0
2017-Sep-18 18:31N 40°42' W 074°01'0 0.1
2017-Sep-18 18:01N 40°42' W 074°01'2 4.3
2017-Sep-18 17:30N 40°44' W 074°01'816.3
2017-Sep-18 17:01N 40°36' W 074°03'711.8
2017-Sep-18 16:27N 40°31' W 073°59'2 0.1
2017-Sep-17 18:55N 40°30' W 074°01'10 3.1
2017-Sep-17 15:48N 40°35' W 074°13'618.3
2017-Sep-17 15:30N 40°39' W 074°07'5 0.2
2017-Sep-16 20:46N 40°35' W 074°04'3 5.5
2017-Sep-16 20:11N 40°35' W 073°59'212.9
2017-Sep-16 20:00N 40°36' W 074°02'1011.2
2017-Sep-16 19:06N 40°26' W 073°58'1 9.2
2017-Sep-16 18:59N 40°27' W 073°59'13 0.6
2017-Sep-15 20:20N 40°33' W 074°15'823.5
2017-Sep-15 20:00N 40°39' W 074°09'917.2
2017-Sep-15 19:30N 40°42' W 073°58'0 0.0
2017-Sep-15 19:00N 40°42' W 073°58'0 0.0
2017-Sep-15 18:30N 40°42' W 073°58'0 0.0
2017-Sep-15 18:00N 40°42' W 073°58'0 0.0
2017-Sep-15 17:30N 40°42' W 073°58'3 5.6
2017-Sep-15 17:00N 40°40' W 074°01'0 0.0
2017-Sep-15 16:30N 40°40' W 074°01'0 0.0
2017-Sep-15 16:00N 40°40' W 074°01'3 5.6
2017-Sep-15 15:30N 40°42' W 073°58'0 0.0
2017-Sep-15 15:00N 40°42' W 073°58'8 8.9
2017-Sep-15 14:06N 40°34' W 073°59'1 2.6
2017-Sep-15 13:49N 40°34' W 073°59'4 0.2
2017-Sep-14 21:14N 40°34' W 074°04'1 3.0
2017-Sep-14 20:55N 40°35' W 074°03'  
Track history (hours):
 
Tides and Currents Weather Stations Pressure Air Temp Water Temp Dewpoint Dewpoint Depression Visibility Wind Speed Wind Dir Waves Ship Positions

Fdny M-8

Owner: NEW YORK CITY FIRE DEPT, BROOKLYN, NY. More information available from US FCC via Universal Licensing System.

Last reported at 2017-Sep-24 20:14 UTC. Time now 2017-Sep-25 00:42 UTC.
Position N 40°36' W 074°03'.

Length 11 m.

Type: Law enforcement. MMSI: 367508630.

Date/timePositionNaut miles runAvg speedWind from/ knotsBaromVisibWave heightAir tempDewpointWater temp
2017-Sep-24 20:14N 40°36' W 074°03'728.2
2017-Sep-24 20:00N 40°42' W 074°01'1 1.7
2017-Sep-24 19:30N 40°43' W 074°01'1 2.1
2017-Sep-24 19:00N 40°43' W 074°02'0 0.0
2017-Sep-24 18:30N 40°43' W 074°02'4 8.3
2017-Sep-24 18:00N 40°38' W 074°03'1015.1
2017-Sep-24 17:18N 40°28' W 074°01'12 0.6
2017-Sep-23 20:32N 40°37' W 074°12'136.8
2017-Sep-23 20:30N 40°38' W 074°12'918.0
2017-Sep-23 19:59N 40°40' W 073°60'  
2017-Sep-20 22:01N 40°42' W 073°58'0 0.0
2017-Sep-20 22:00N 40°42' W 073°58'0 0.0
2017-Sep-20 21:31N 40°42' W 073°58'0 0.0
2017-Sep-20 21:00N 40°42' W 073°58'5 9.4
2017-Sep-20 20:30N 40°39' W 074°02'4 1.0
2017-Sep-20 16:26N 40°35' W 074°04'716.0
2017-Sep-20 16:00N 40°38' W 074°12'1 0.0
2017-Sep-18 19:51N 40°37' W 074°12'720.0
2017-Sep-18 19:30N 40°41' W 074°04'3 6.0
2017-Sep-18 19:00N 40°42' W 074°01'0 0.0
2017-Sep-18 18:31N 40°42' W 074°01'0 0.1
2017-Sep-18 18:01N 40°42' W 074°01'2 4.3
2017-Sep-18 17:30N 40°44' W 074°01'816.3
2017-Sep-18 17:01N 40°36' W 074°03'711.8
2017-Sep-18 16:27N 40°31' W 073°59'2 0.1
2017-Sep-17 18:55N 40°30' W 074°01'10 3.1
2017-Sep-17 15:48N 40°35' W 074°13'618.3
2017-Sep-17 15:30N 40°39' W 074°07'5 0.2
2017-Sep-16 20:46N 40°35' W 074°04'3 5.5
2017-Sep-16 20:11N 40°35' W 073°59'212.9
2017-Sep-16 20:00N 40°36' W 074°02'1011.2
2017-Sep-16 19:06N 40°26' W 073°58'1 9.2
2017-Sep-16 18:59N 40°27' W 073°59'13 0.6
2017-Sep-15 20:20N 40°33' W 074°15'823.5
2017-Sep-15 20:00N 40°39' W 074°09'917.2
2017-Sep-15 19:30N 40°42' W 073°58'0 0.0
2017-Sep-15 19:00N 40°42' W 073°58'0 0.0
2017-Sep-15 18:30N 40°42' W 073°58'0 0.0
2017-Sep-15 18:00N 40°42' W 073°58'0 0.0
2017-Sep-15 17:30N 40°42' W 073°58'3 5.6
2017-Sep-15 17:00N 40°40' W 074°01'0 0.0
2017-Sep-15 16:30N 40°40' W 074°01'0 0.0
2017-Sep-15 16:00N 40°40' W 074°01'3 5.6
2017-Sep-15 15:30N 40°42' W 073°58'0 0.0
2017-Sep-15 15:00N 40°42' W 073°58'8 8.9
2017-Sep-15 14:06N 40°34' W 073°59'1 2.6
2017-Sep-15 13:49N 40°34' W 073°59'4 0.2
2017-Sep-14 21:14N 40°34' W 074°04'1 3.0
2017-Sep-14 20:55N 40°35' W 074°03'  

Dump ship's entire track history